createdAt,value
2022-12-03T00:00:02.594Z,13.93
2022-12-03T00:02:32.407Z,15.10
2022-12-03T00:04:59.808Z,20.73
2022-12-03T00:07:27.156Z,17.65
2022-12-03T00:09:54.414Z,15.45
2022-12-03T00:12:21.573Z,15.50
2022-12-03T00:14:48.692Z,14.32
2022-12-03T00:17:15.894Z,16.02
2022-12-03T00:19:43.225Z,12.73
2022-12-03T00:22:12.654Z,10.93
2022-12-03T00:24:40.145Z,13.02
2022-12-03T00:27:07.206Z,13.70
2022-12-03T00:29:34.299Z,12.30
2022-12-03T00:32:01.476Z,13.10
2022-12-03T00:34:28.664Z,11.20
2022-12-03T00:36:55.889Z,13.63
2022-12-03T00:39:23.406Z,17.42
2022-12-03T00:41:50.624Z,10.95
2022-12-03T00:44:18.258Z,10.77
2022-12-03T00:46:45.413Z,11.02
2022-12-03T00:49:12.636Z,11.65
2022-12-03T00:51:39.730Z,11.73
2022-12-03T00:54:06.859Z,11.95
2022-12-03T00:56:34.623Z,12.52
2022-12-03T00:59:01.773Z,13.30
2022-12-03T01:01:28.947Z,16.90
2022-12-03T01:03:56.242Z,15.73
2022-12-03T01:06:23.433Z,15.63
2022-12-03T01:08:50.687Z,16.05
2022-12-03T01:11:36.340Z,16.42
2022-12-03T01:14:04.649Z,14.80
2022-12-03T01:16:32.983Z,14.23
2022-12-03T01:19:00.091Z,13.40
2022-12-03T01:21:27.264Z,15.43
2022-12-03T01:23:54.554Z,17.33
2022-12-03T01:26:21.800Z,11.40
2022-12-03T01:28:49.008Z,14.95
2022-12-03T01:31:34.862Z,15.02
2022-12-03T01:34:02.101Z,14.05
2022-12-03T01:36:29.208Z,16.52
2022-12-03T01:38:56.432Z,16.55
2022-12-03T01:41:25.123Z,17.35
2022-12-03T01:43:54.094Z,20.20
2022-12-03T01:46:37.490Z,15.27
2022-12-03T01:49:04.921Z,17.27
2022-12-03T01:51:32.185Z,18.02
2022-12-03T01:54:00.815Z,17.13
2022-12-03T01:56:28.316Z,19.10
2022-12-03T01:58:55.438Z,20.48
2022-12-03T02:01:22.622Z,16.40
2022-12-03T02:03:50.045Z,15.93
2022-12-03T02:06:22.979Z,20.80
2022-12-03T02:08:50.161Z,21.98
2022-12-03T02:11:20.864Z,17.45
2022-12-03T02:13:53.285Z,19.35
2022-12-03T02:16:20.849Z,18.70
2022-12-03T02:18:48.620Z,20.05
2022-12-03T02:21:42.720Z,17.65
2022-12-03T02:24:25.697Z,16.58
2022-12-03T02:26:52.859Z,18.17
2022-12-03T02:29:19.994Z,22.90
2022-12-03T02:31:47.223Z,20.80
2022-12-03T02:34:43.396Z,18.00
2022-12-03T02:37:17.456Z,17.88
2022-12-03T02:39:50.454Z,18.40
2022-12-03T02:42:37.193Z,16.23
2022-12-03T02:45:07.710Z,18.83
2022-12-03T02:47:39.925Z,24.10
2022-12-03T02:52:35.683Z,17.30
2022-12-03T02:55:05.418Z,19.27
2022-12-03T02:57:34.054Z,15.63
2022-12-03T03:00:01.177Z,17.67
2022-12-03T03:02:28.479Z,15.10
2022-12-03T03:04:57.059Z,15.98
2022-12-03T03:07:24.236Z,13.13
2022-12-03T03:09:51.418Z,16.77
2022-12-03T03:12:18.665Z,16.25
2022-12-03T03:14:45.876Z,14.80
2022-12-03T03:17:13.027Z,17.77
2022-12-03T03:19:40.206Z,16.08
2022-12-03T03:22:07.394Z,12.35
2022-12-03T03:24:34.517Z,15.10
2022-12-03T03:27:01.729Z,14.40
2022-12-03T03:29:28.939Z,16.38
2022-12-03T03:31:56.153Z,15.38
2022-12-03T03:34:23.409Z,14.90
2022-12-03T03:36:50.724Z,14.32
2022-12-03T03:39:17.937Z,18.02
2022-12-03T03:41:46.768Z,16.38
2022-12-03T03:44:14.389Z,13.43
2022-12-03T03:46:42.808Z,13.85
2022-12-03T03:49:10.606Z,12.35
2022-12-03T03:51:38.766Z,13.18
2022-12-03T03:54:06.180Z,13.98
2022-12-03T03:56:34.338Z,10.05
2022-12-03T03:59:02.404Z,13.55
2022-12-03T04:01:30.054Z,15.98
2022-12-03T04:03:59.631Z,16.50
2022-12-03T04:06:27.911Z,15.07
2022-12-03T04:08:55.008Z,10.93
2022-12-03T04:11:40.614Z,16.30
2022-12-03T04:14:07.786Z,14.50
2022-12-03T04:16:34.962Z,17.00
2022-12-03T04:19:02.096Z,16.52
2022-12-03T04:21:47.663Z,15.85
2022-12-03T04:24:14.820Z,13.88
2022-12-03T04:27:00.440Z,18.00
2022-12-03T04:29:27.538Z,14.27
2022-12-03T04:32:13.209Z,17.13
2022-12-03T04:34:59.280Z,19.65
2022-12-03T04:37:41.467Z,14.95
2022-12-03T04:40:29.033Z,19.25
2022-12-03T04:42:56.138Z,15.48
2022-12-03T04:45:23.192Z,17.40
2022-12-03T04:47:50.355Z,19.45
2022-12-03T04:50:17.397Z,16.45
2022-12-03T04:52:44.564Z,24.45
2022-12-03T04:55:11.636Z,19.58
2022-12-03T04:57:38.669Z,20.23
2022-12-03T05:00:06.460Z,19.67
2022-12-03T05:02:33.690Z,21.58
2022-12-03T05:05:00.867Z,20.05
2022-12-03T05:07:28.020Z,21.17
2022-12-03T05:09:55.146Z,18.55
2022-12-03T05:12:22.310Z,22.33
2022-12-03T05:14:49.375Z,21.70
2022-12-03T05:17:16.473Z,20.70
2022-12-03T05:20:02.045Z,22.95
2022-12-03T05:22:29.170Z,20.83
2022-12-03T05:24:56.680Z,20.45
2022-12-03T05:27:24.454Z,29.60
2022-12-03T05:29:52.125Z,23.38
2022-12-03T05:32:19.573Z,22.00
2022-12-03T05:34:46.648Z,22.58
2022-12-03T05:37:13.938Z,25.02
2022-12-03T05:39:41.333Z,25.80
2022-12-03T05:42:28.568Z,22.75
2022-12-03T05:44:56.593Z,22.88
2022-12-03T05:47:23.886Z,27.67
2022-12-03T05:49:51.553Z,24.25
2022-12-03T05:52:18.716Z,20.42
2022-12-03T05:54:45.847Z,20.27
2022-12-03T05:57:12.992Z,19.55
2022-12-03T05:59:40.065Z,20.90
2022-12-03T06:02:07.231Z,23.27
2022-12-03T06:04:34.545Z,22.42
2022-12-03T06:07:01.708Z,18.58
2022-12-03T06:09:28.773Z,18.80
2022-12-03T06:11:55.931Z,18.10
2022-12-03T06:14:23.156Z,19.50
2022-12-03T06:16:50.238Z,18.00
2022-12-03T06:19:17.491Z,16.98
2022-12-03T06:21:44.549Z,16.98
2022-12-03T06:24:11.568Z,21.95
2022-12-03T06:26:39.567Z,16.58
2022-12-03T06:29:06.799Z,19.90
2022-12-03T06:31:34.424Z,13.38
2022-12-03T06:34:01.599Z,18.30
2022-12-03T06:36:28.741Z,18.17
2022-12-03T06:38:55.845Z,16.52
2022-12-03T06:41:22.900Z,18.95
2022-12-03T06:43:49.958Z,13.55
2022-12-03T06:46:17.380Z,17.40
2022-12-03T06:48:44.819Z,17.02
2022-12-03T06:51:11.885Z,18.45
2022-12-03T06:53:38.990Z,17.05
2022-12-03T06:56:06.449Z,17.42
2022-12-03T06:58:33.586Z,15.98
2022-12-03T07:01:00.716Z,13.35
2022-12-03T07:03:27.949Z,15.57
2022-12-03T07:05:55.578Z,13.25
2022-12-03T07:08:22.826Z,20.23
2022-12-03T07:10:49.903Z,16.88
2022-12-03T07:13:17.155Z,17.27
2022-12-03T07:15:44.266Z,14.25
2022-12-03T07:18:11.678Z,12.50
2022-12-03T07:20:38.885Z,19.13
2022-12-03T07:23:06.054Z,17.38
2022-12-03T07:25:33.300Z,16.05
2022-12-03T07:28:00.675Z,13.13
2022-12-03T07:30:28.056Z,18.00
2022-12-03T07:32:56.335Z,11.10
2022-12-03T07:35:23.415Z,16.20
2022-12-03T07:37:50.482Z,17.52
2022-12-03T07:40:17.751Z,16.10
2022-12-03T07:42:44.920Z,11.10
2022-12-03T07:45:12.267Z,13.98
2022-12-03T07:47:39.442Z,13.23
2022-12-03T07:50:07.231Z,14.75
2022-12-03T07:52:34.297Z,10.68
2022-12-03T07:55:01.463Z,10.80
2022-12-03T07:57:28.612Z,14.85
2022-12-03T07:59:55.688Z,13.32
2022-12-03T08:02:22.871Z,14.25
2022-12-03T08:04:50.184Z,14.13
2022-12-03T08:07:17.280Z,12.20
2022-12-03T08:09:44.596Z,11.38
2022-12-03T08:12:40.300Z,11.55
2022-12-03T08:15:20.325Z,12.00
2022-12-03T08:17:54.685Z,10.25
2022-12-03T08:20:28.236Z,12.73
2022-12-03T08:22:56.660Z,12.15
2022-12-03T08:25:30.177Z,10.93
2022-12-03T08:28:20.954Z,11.80
2022-12-03T08:31:02.662Z,12.63
2022-12-03T08:33:36.791Z,14.40
2022-12-03T08:36:14.771Z,13.60
2022-12-03T08:38:43.499Z,7.50
2022-12-03T08:41:16.031Z,12.38
2022-12-03T08:43:44.014Z,10.07
2022-12-03T08:46:19.585Z,10.70
2022-12-03T08:48:49.497Z,12.07
2022-12-03T08:51:25.466Z,8.57
2022-12-03T08:54:03.561Z,10.20
2022-12-03T08:56:35.899Z,10.00
2022-12-03T08:59:25.062Z,10.23
2022-12-03T09:01:53.823Z,11.13
2022-12-03T09:04:25.311Z,10.57
2022-12-03T09:06:53.720Z,11.50
2022-12-03T09:09:21.464Z,10.35
2022-12-03T09:11:49.184Z,13.38
2022-12-03T09:14:18.990Z,11.18
2022-12-03T09:16:46.588Z,9.40
2022-12-03T09:19:14.333Z,11.55
2022-12-03T09:21:41.476Z,8.98
2022-12-03T09:24:08.765Z,12.60
2022-12-03T09:26:35.891Z,12.02
2022-12-03T09:29:07.547Z,10.95
2022-12-03T09:31:38.262Z,11.60
2022-12-03T09:34:05.962Z,10.45
2022-12-03T09:36:33.287Z,11.90
2022-12-03T09:39:00.407Z,12.07
2022-12-03T09:41:27.894Z,11.57
2022-12-03T09:44:04.832Z,12.02
2022-12-03T09:46:35.218Z,9.90
2022-12-03T09:49:05.122Z,9.00
2022-12-03T09:51:35.460Z,11.35
2022-12-03T09:54:05.709Z,7.80
2022-12-03T09:56:38.060Z,11.05
2022-12-03T09:59:15.595Z,13.48
2022-12-03T10:01:42.977Z,7.00
2022-12-03T10:04:10.959Z,9.82
2022-12-03T10:06:45.293Z,12.70
2022-12-03T10:09:17.435Z,10.77
2022-12-03T10:11:45.564Z,8.88
2022-12-03T10:14:15.509Z,12.35
2022-12-03T10:16:42.885Z,6.68
2022-12-03T10:19:19.348Z,8.38
2022-12-03T10:21:46.855Z,9.38
2022-12-03T10:24:17.179Z,11.45
2022-12-03T10:26:45.738Z,8.10
2022-12-03T10:29:31.596Z,10.93
2022-12-03T10:32:12.881Z,8.07
2022-12-03T10:34:44.887Z,9.10
2022-12-03T10:37:20.795Z,12.45
2022-12-03T10:40:10.763Z,10.27
2022-12-03T10:42:41.442Z,7.68
2022-12-03T10:45:18.241Z,11.10
2022-12-03T10:48:06.772Z,10.38
2022-12-03T10:50:35.534Z,11.60
2022-12-03T10:53:03.582Z,7.85
2022-12-03T10:55:37.426Z,12.82
2022-12-03T10:58:04.605Z,9.32
2022-12-03T11:00:31.906Z,9.95
2022-12-03T11:02:59.198Z,8.07
2022-12-03T11:05:28.598Z,6.60
2022-12-03T11:07:56.849Z,13.10
2022-12-03T11:10:24.497Z,11.35
2022-12-03T11:13:30.076Z,10.20
2022-12-03T11:15:58.482Z,8.77
2022-12-03T11:18:37.982Z,7.97
2022-12-03T11:21:13.573Z,12.85
2022-12-03T11:23:46.831Z,7.82
2022-12-03T11:26:38.099Z,9.70
2022-12-03T11:29:16.132Z,7.65
2022-12-03T11:31:47.340Z,10.18
2022-12-03T11:34:23.472Z,11.20
2022-12-03T11:37:12.595Z,10.45
2022-12-03T11:39:52.186Z,12.05
2022-12-03T11:42:31.408Z,8.23
2022-12-03T11:45:04.839Z,10.43
2022-12-03T11:47:38.959Z,8.07
2022-12-03T11:50:18.164Z,9.48
2022-12-03T11:52:47.918Z,9.23
2022-12-03T11:55:28.443Z,11.38
2022-12-03T11:58:04.579Z,11.43
2022-12-03T12:00:32.598Z,12.38
2022-12-03T12:02:59.786Z,11.30
2022-12-03T12:05:35.640Z,8.88
2022-12-03T12:08:03.531Z,6.65
2022-12-03T12:10:38.739Z,10.52
2022-12-03T12:13:06.932Z,9.00
2022-12-03T12:15:34.702Z,11.93
2022-12-03T12:18:39.747Z,10.65
2022-12-03T12:21:44.339Z,8.98
2022-12-03T12:24:31.285Z,11.63
2022-12-03T12:27:09.669Z,6.80
2022-12-03T12:29:38.501Z,11.40
2022-12-03T12:32:16.177Z,9.45
2022-12-03T12:34:46.567Z,10.13
2022-12-03T12:37:32.574Z,14.77
2022-12-03T12:40:02.171Z,11.93
2022-12-03T12:42:32.208Z,13.57
2022-12-03T12:45:14.192Z,12.05
2022-12-03T12:48:25.820Z,15.07
2022-12-03T12:51:11.145Z,10.07
2022-12-03T12:53:39.922Z,12.68
2022-12-03T12:56:22.068Z,10.88
2022-12-03T12:58:49.250Z,15.30
2022-12-03T13:01:30.289Z,14.93
2022-12-03T13:03:58.475Z,12.30
2022-12-03T13:06:31.391Z,13.80
2022-12-03T13:09:01.201Z,16.58
2022-12-03T13:11:41.537Z,16.30
2022-12-03T13:14:26.384Z,13.05
2022-12-03T13:16:56.671Z,18.60
2022-12-03T13:19:26.185Z,13.57
2022-12-03T13:22:01.523Z,17.73
2022-12-03T13:24:52.855Z,17.65
2022-12-03T13:27:20.104Z,17.55
2022-12-03T13:30:00.939Z,19.40
2022-12-03T13:32:36.736Z,14.73
2022-12-03T13:35:18.571Z,16.45
2022-12-03T13:37:45.788Z,14.15
2022-12-03T13:40:30.747Z,16.33
2022-12-03T13:42:58.967Z,15.43
2022-12-03T13:45:30.607Z,17.88
2022-12-03T13:48:02.983Z,18.45
2022-12-03T13:50:46.230Z,16.45
2022-12-03T13:53:22.332Z,16.23
2022-12-03T13:55:56.673Z,15.88
2022-12-03T13:58:25.169Z,17.55
2022-12-03T14:00:52.355Z,17.33
2022-12-03T14:03:19.972Z,15.40
2022-12-03T14:05:47.136Z,16.70
2022-12-03T14:08:14.352Z,16.10
2022-12-03T14:10:41.502Z,17.33
2022-12-03T14:13:08.704Z,17.15
2022-12-03T14:15:35.834Z,18.70
2022-12-03T14:18:02.984Z,21.27
2022-12-03T14:20:30.058Z,15.65
2022-12-03T14:22:59.457Z,18.33
2022-12-03T14:25:27.064Z,25.08
2022-12-03T14:27:54.157Z,18.35
2022-12-03T14:30:21.278Z,19.17
2022-12-03T14:32:48.406Z,17.20
2022-12-03T14:35:15.651Z,17.95
2022-12-03T14:37:42.927Z,13.10
2022-12-03T14:40:10.398Z,18.88
2022-12-03T14:42:37.677Z,18.40
2022-12-03T14:45:05.647Z,21.13
2022-12-03T14:47:32.779Z,17.80
2022-12-03T14:50:00.600Z,16.05
2022-12-03T14:52:27.878Z,24.42
2022-12-03T14:54:55.028Z,17.38
2022-12-03T14:57:22.178Z,15.88
2022-12-03T14:59:49.535Z,16.60
2022-12-03T15:02:16.770Z,18.52
2022-12-03T15:04:43.978Z,18.65
2022-12-03T15:07:11.224Z,17.27
2022-12-03T15:09:38.411Z,16.92
2022-12-03T15:12:05.966Z,17.48
2022-12-03T15:14:33.208Z,16.88
2022-12-03T15:17:00.344Z,19.45
2022-12-03T15:19:27.450Z,19.60
2022-12-03T15:21:54.634Z,17.17
2022-12-03T15:24:21.846Z,16.30
2022-12-03T15:26:49.667Z,18.00
2022-12-03T15:29:16.887Z,18.25
2022-12-03T15:31:44.699Z,15.40
2022-12-03T15:34:14.032Z,17.15
2022-12-03T15:36:44.515Z,16.67
2022-12-03T15:39:11.642Z,16.67
2022-12-03T15:41:38.837Z,14.27
2022-12-03T15:44:05.994Z,14.80
2022-12-03T15:46:33.340Z,17.85
2022-12-03T15:49:00.508Z,19.33
2022-12-03T15:51:27.637Z,18.13
2022-12-03T15:53:54.785Z,22.30
2022-12-03T15:56:21.906Z,17.90
2022-12-03T15:58:49.097Z,18.75
2022-12-03T16:01:18.468Z,18.20
2022-12-03T16:03:45.752Z,18.65
2022-12-03T16:06:14.782Z,20.13
2022-12-03T16:08:42.120Z,17.38
2022-12-03T16:11:09.356Z,21.30
2022-12-03T16:13:36.519Z,19.63
2022-12-03T16:16:04.031Z,18.45
2022-12-03T16:18:32.200Z,19.40
2022-12-03T16:20:59.300Z,22.25
2022-12-03T16:23:26.393Z,22.80
2022-12-03T16:25:53.597Z,17.42
2022-12-03T16:28:20.697Z,17.70
2022-12-03T16:30:47.789Z,20.33
2022-12-03T16:33:14.904Z,19.08
2022-12-03T16:35:42.128Z,20.13
2022-12-03T16:38:09.227Z,20.42
2022-12-03T16:40:36.348Z,18.00
2022-12-03T16:43:04.824Z,21.48
2022-12-03T16:45:50.299Z,17.80
2022-12-03T16:48:18.796Z,20.85
2022-12-03T16:50:46.154Z,19.80
2022-12-03T16:53:13.978Z,21.42
2022-12-03T16:55:41.687Z,21.40
2022-12-03T16:58:09.026Z,23.15
2022-12-03T17:00:36.225Z,16.60
2022-12-03T17:03:03.584Z,21.73
2022-12-03T17:05:30.955Z,19.50
2022-12-03T17:07:58.257Z,19.70
2022-12-03T17:10:25.461Z,23.52
2022-12-03T17:13:09.731Z,21.13
2022-12-03T17:15:37.431Z,20.40
2022-12-03T17:18:04.781Z,16.48
2022-12-03T17:20:33.407Z,22.83
2022-12-03T17:23:00.984Z,21.50
2022-12-03T17:25:28.608Z,18.70
2022-12-03T17:27:55.818Z,22.30
2022-12-03T17:30:23.085Z,20.58
2022-12-03T17:32:50.540Z,22.60
2022-12-03T17:35:18.363Z,24.25
2022-12-03T17:37:46.109Z,19.42
2022-12-03T17:40:15.663Z,19.58
2022-12-03T17:42:42.917Z,23.08
2022-12-03T17:45:10.809Z,25.08
2022-12-03T17:47:38.125Z,19.75
2022-12-03T17:50:06.615Z,23.25
2022-12-03T17:52:33.870Z,20.05
2022-12-03T17:55:27.723Z,21.20
2022-12-03T17:57:48.056Z,22.55
2022-12-03T18:00:15.721Z,18.55
2022-12-03T18:02:43.015Z,23.48
2022-12-03T18:05:10.555Z,22.98
2022-12-03T18:07:37.811Z,21.23
2022-12-03T18:10:06.056Z,19.42
2022-12-03T18:12:33.415Z,25.48
2022-12-03T18:15:00.502Z,21.65
2022-12-03T18:17:27.638Z,25.58
2022-12-03T18:19:55.053Z,22.58
2022-12-03T18:22:22.479Z,24.27
2022-12-03T18:24:51.985Z,24.55
2022-12-03T18:27:21.573Z,25.48
2022-12-03T18:29:49.250Z,23.60
2022-12-03T18:32:28.308Z,21.02
2022-12-03T18:34:57.821Z,29.88
2022-12-03T18:37:30.273Z,32.20
2022-12-03T18:39:58.696Z,24.17
2022-12-03T18:42:26.736Z,26.55
2022-12-03T18:44:56.102Z,24.77
2022-12-03T18:47:27.011Z,26.40
2022-12-03T18:49:56.278Z,22.88
2022-12-03T18:52:25.272Z,25.38
2022-12-03T18:54:53.325Z,26.85
2022-12-03T18:57:20.516Z,24.70
2022-12-03T18:59:47.726Z,27.58
2022-12-03T19:05:09.143Z,29.52
2022-12-03T19:07:36.456Z,31.13
2022-12-03T19:10:04.588Z,30.60
2022-12-03T19:12:32.341Z,33.33
2022-12-03T19:14:59.431Z,35.13
2022-12-03T19:17:27.545Z,28.00
2022-12-03T19:19:55.244Z,24.17
2022-12-03T19:22:23.689Z,24.00
2022-12-03T19:24:50.895Z,25.90
2022-12-03T19:27:18.127Z,23.02
2022-12-03T19:29:48.617Z,21.55
2022-12-03T19:32:15.910Z,25.42
2022-12-03T19:34:43.033Z,25.75
2022-12-03T19:37:10.268Z,26.75
2022-12-03T19:39:37.400Z,23.52
2022-12-03T19:42:04.738Z,25.33
2022-12-03T19:44:31.955Z,24.92
2022-12-03T19:46:59.146Z,30.02
2022-12-03T19:49:26.587Z,25.55
2022-12-03T19:51:53.928Z,26.48
2022-12-03T19:54:21.054Z,28.58
2022-12-03T19:56:48.258Z,25.52
2022-12-03T19:59:15.455Z,22.25
2022-12-03T20:01:43.425Z,26.85
2022-12-03T20:04:12.144Z,22.48
2022-12-03T20:06:39.437Z,28.70
2022-12-03T20:09:12.325Z,27.42
2022-12-03T20:11:42.650Z,24.75
2022-12-03T20:14:16.694Z,22.40
2022-12-03T20:16:45.113Z,28.27
2022-12-03T20:19:15.032Z,26.40
2022-12-03T20:21:42.853Z,33.35
2022-12-03T20:24:14.083Z,28.45
2022-12-03T20:26:41.915Z,22.45
2022-12-03T20:29:09.248Z,25.40
2022-12-03T20:31:36.486Z,23.92
2022-12-03T20:34:04.561Z,25.48
2022-12-03T20:36:32.749Z,29.33
2022-12-03T20:39:02.980Z,24.08
2022-12-03T20:41:30.227Z,27.38
2022-12-03T20:43:57.443Z,21.70
2022-12-03T20:46:30.172Z,27.45
2022-12-03T20:48:58.176Z,23.98
2022-12-03T20:51:29.836Z,22.25
2022-12-03T20:53:58.365Z,27.83
2022-12-03T20:56:31.564Z,20.55
2022-12-03T20:59:07.414Z,28.48
2022-12-03T21:01:36.135Z,27.20
2022-12-03T21:04:04.827Z,21.88
2022-12-03T21:06:34.929Z,29.42
2022-12-03T21:09:03.845Z,27.20
2022-12-03T21:11:32.521Z,26.35
2022-12-03T21:14:00.297Z,22.02
2022-12-03T21:16:59.120Z,21.17
2022-12-03T21:19:18.619Z,23.80
2022-12-03T21:21:45.858Z,23.23
2022-12-03T21:24:13.797Z,26.88
2022-12-03T21:26:41.228Z,28.90
2022-12-03T21:29:08.781Z,24.17
2022-12-03T21:31:37.880Z,26.52
2022-12-03T21:34:05.216Z,27.80
2022-12-03T21:36:32.571Z,28.75
2022-12-03T21:39:00.109Z,27.90
2022-12-03T21:41:27.373Z,32.28
2022-12-03T21:43:54.504Z,30.40
2022-12-03T21:47:09.314Z,25.98
2022-12-03T21:49:08.847Z,22.30
2022-12-03T21:51:35.983Z,24.45
2022-12-03T21:54:03.382Z,26.63
2022-12-03T21:56:31.974Z,27.15
2022-12-03T21:58:59.097Z,32.60
2022-12-03T22:01:26.507Z,27.65
2022-12-03T22:03:53.771Z,26.60
2022-12-03T22:06:22.141Z,25.58
2022-12-03T22:08:49.716Z,24.80
2022-12-03T22:11:22.162Z,25.95
2022-12-03T22:13:49.348Z,25.15
2022-12-03T22:16:19.261Z,27.00
2022-12-03T22:18:47.098Z,27.38
2022-12-03T22:21:17.782Z,30.20
2022-12-03T22:23:48.363Z,27.60
2022-12-03T22:26:18.386Z,27.30
2022-12-03T22:28:47.686Z,26.00
2022-12-03T22:31:16.230Z,22.85
2022-12-03T22:33:45.970Z,26.65
2022-12-03T22:36:19.907Z,25.00
2022-12-03T22:38:48.427Z,29.85
2022-12-03T22:41:16.050Z,27.98
2022-12-03T22:43:43.483Z,26.55
2022-12-03T22:46:12.873Z,26.45
2022-12-03T22:48:45.167Z,22.83
2022-12-03T22:51:18.365Z,27.15
2022-12-03T22:53:45.768Z,23.35
2022-12-03T22:56:13.327Z,30.42
2022-12-03T22:58:41.231Z,25.40
2022-12-03T23:01:08.442Z,26.73
2022-12-03T23:03:36.270Z,27.88
2022-12-03T23:06:10.424Z,24.90
2022-12-03T23:08:37.706Z,31.13
2022-12-03T23:11:05.114Z,30.55
2022-12-03T23:13:32.247Z,25.85
2022-12-03T23:15:59.754Z,29.23
2022-12-03T23:18:26.890Z,25.92
2022-12-03T23:20:56.471Z,23.48
2022-12-03T23:23:26.370Z,27.95
2022-12-03T23:26:07.931Z,31.33
2022-12-03T23:28:36.881Z,25.27
2022-12-03T23:31:05.765Z,26.02
2022-12-03T23:33:37.923Z,21.98
2022-12-03T23:36:06.449Z,26.35
2022-12-03T23:38:33.988Z,28.25
2022-12-03T23:41:09.540Z,28.40
2022-12-03T23:43:37.181Z,21.90
2022-12-03T23:46:06.534Z,26.70
2022-12-03T23:48:33.918Z,26.88
2022-12-03T23:51:10.186Z,33.85
2022-12-03T23:53:38.444Z,30.27
2022-12-03T23:56:11.795Z,22.98
2022-12-03T23:58:39.049Z,28.33
